createdAt,value
2018-06-23T00:00:49.993Z,2.90
2018-06-23T00:03:17.661Z,2.30
2018-06-23T00:05:46.380Z,3.10
2018-06-23T00:08:14.061Z,2.57
2018-06-23T00:10:41.724Z,2.70
2018-06-23T00:13:09.383Z,2.70
2018-06-23T00:15:37.129Z,2.87
2018-06-23T00:18:04.914Z,2.43
2018-06-23T00:20:32.692Z,2.23
2018-06-23T00:23:00.367Z,3.60
2018-06-23T00:25:33.833Z,1.97
2018-06-23T00:28:01.453Z,2.70
2018-06-23T00:30:29.125Z,2.47
2018-06-23T00:32:56.871Z,2.80
2018-06-23T00:35:24.552Z,3.30
2018-06-23T00:37:52.196Z,2.90
2018-06-23T00:40:19.913Z,2.73
2018-06-23T00:42:47.612Z,2.90
2018-06-23T00:45:15.325Z,2.97
2018-06-23T00:47:42.960Z,2.73
2018-06-23T00:50:10.734Z,2.27
2018-06-23T00:52:38.416Z,2.50
2018-06-23T00:55:06.432Z,3.80
2018-06-23T00:57:34.100Z,2.30
2018-06-23T01:00:01.841Z,2.23
2018-06-23T01:02:29.512Z,3.13
2018-06-23T01:04:57.255Z,2.83
2018-06-23T01:07:24.854Z,3.53
2018-06-23T01:09:52.580Z,2.40
2018-06-23T01:12:20.299Z,2.50
2018-06-23T01:14:48.067Z,2.20
2018-06-23T01:17:15.771Z,2.10
2018-06-23T01:19:43.449Z,2.70
2018-06-23T01:22:11.105Z,3.13
2018-06-23T01:24:38.852Z,3.53
2018-06-23T01:27:06.525Z,3.53
2018-06-23T01:29:34.485Z,2.40
2018-06-23T01:32:02.180Z,2.00
2018-06-23T01:34:29.779Z,2.63
2018-06-23T01:36:57.535Z,2.50
2018-06-23T01:39:25.462Z,2.73
2018-06-23T01:41:53.080Z,2.40
2018-06-23T01:44:20.707Z,2.27
2018-06-23T01:46:48.381Z,2.77
2018-06-23T01:49:16.112Z,3.27
2018-06-23T01:51:43.788Z,3.57
2018-06-23T01:54:11.488Z,2.97
2018-06-23T01:56:39.167Z,2.70
2018-06-23T01:59:06.803Z,3.07
2018-06-23T02:01:34.508Z,3.30
2018-06-23T02:04:02.479Z,3.10
2018-06-23T02:06:30.166Z,3.90
2018-06-23T02:08:57.839Z,3.53
2018-06-23T02:11:25.511Z,2.20
2018-06-23T02:13:59.332Z,2.53
2018-06-23T02:16:32.755Z,2.70
2018-06-23T02:19:06.272Z,2.40
2018-06-23T02:21:39.657Z,2.73
2018-06-23T02:24:13.245Z,2.90
2018-06-23T02:26:46.684Z,2.67
2018-06-23T02:29:20.171Z,2.60
2018-06-23T02:31:53.696Z,3.00
2018-06-23T02:34:26.913Z,2.43
2018-06-23T02:36:54.619Z,2.83
2018-06-23T02:39:22.288Z,2.07
2018-06-23T02:41:49.964Z,2.50
2018-06-23T02:44:17.696Z,3.47
2018-06-23T02:46:45.422Z,3.20
2018-06-23T02:49:13.046Z,2.63
2018-06-23T02:51:40.750Z,3.30
2018-06-23T02:54:08.426Z,2.60
2018-06-23T02:56:36.034Z,2.23
2018-06-23T02:59:03.710Z,3.90
2018-06-23T03:01:31.404Z,2.47
2018-06-23T03:03:58.951Z,2.90
2018-06-23T03:06:26.558Z,2.40
2018-06-23T03:08:54.256Z,3.23
2018-06-23T03:11:21.954Z,3.10
2018-06-23T03:13:49.647Z,2.63
2018-06-23T03:16:17.217Z,2.93
2018-06-23T03:18:44.928Z,3.13
2018-06-23T03:21:12.569Z,4.90
2018-06-23T03:23:40.287Z,2.07
2018-06-23T03:26:07.913Z,2.47
2018-06-23T03:28:35.675Z,2.37
2018-06-23T03:31:03.267Z,3.93
2018-06-23T03:33:30.888Z,2.30
2018-06-23T03:35:58.741Z,3.20
2018-06-23T03:38:26.420Z,2.70
2018-06-23T03:40:53.986Z,2.90
2018-06-23T03:43:21.715Z,3.00
2018-06-23T03:45:49.421Z,2.50
2018-06-23T03:48:17.123Z,2.40
2018-06-23T03:50:44.774Z,3.87
2018-06-23T03:53:12.599Z,3.50
2018-06-23T03:55:40.322Z,3.50
2018-06-23T03:58:08.248Z,2.73
2018-06-23T04:00:36.918Z,2.60
2018-06-23T04:03:04.655Z,2.70
2018-06-23T04:05:32.318Z,2.50
2018-06-23T04:08:00.094Z,2.77
2018-06-23T04:10:27.718Z,2.77
2018-06-23T04:12:55.431Z,2.70
2018-06-23T04:15:23.095Z,2.90
2018-06-23T04:17:50.774Z,3.40
2018-06-23T04:20:18.433Z,2.53
2018-06-23T04:22:46.097Z,2.80
2018-06-23T04:25:13.830Z,3.20
2018-06-23T04:27:41.651Z,1.93
2018-06-23T04:30:09.485Z,2.10
2018-06-23T04:32:37.143Z,2.07
2018-06-23T04:35:06.111Z,2.50
2018-06-23T04:37:33.991Z,2.73
2018-06-23T04:40:01.618Z,2.43
2018-06-23T04:42:29.288Z,2.00
2018-06-23T04:44:56.930Z,2.90
2018-06-23T04:47:24.560Z,2.90
2018-06-23T04:49:52.193Z,3.97
2018-06-23T04:52:19.846Z,2.30
2018-06-23T04:54:47.546Z,2.13
2018-06-23T04:57:15.218Z,2.80
2018-06-23T04:59:42.889Z,2.40
2018-06-23T05:02:10.536Z,3.07
2018-06-23T05:04:38.101Z,3.20
2018-06-23T05:07:05.775Z,3.53
2018-06-23T05:09:33.715Z,1.50
2018-06-23T05:12:01.323Z,3.03
2018-06-23T05:14:28.961Z,2.23
2018-06-23T05:16:56.565Z,2.57
2018-06-23T05:19:24.259Z,4.10
2018-06-23T05:21:51.961Z,2.10
2018-06-23T05:24:19.687Z,2.43
2018-06-23T05:26:47.693Z,2.70
2018-06-23T05:29:15.306Z,3.20
2018-06-23T05:31:43.020Z,2.53
2018-06-23T05:34:10.655Z,2.80
2018-06-23T05:36:38.311Z,3.07
2018-06-23T05:39:07.867Z,2.80
2018-06-23T05:41:36.136Z,2.60
2018-06-23T05:44:04.003Z,2.03
2018-06-23T05:46:31.709Z,2.80
2018-06-23T05:48:59.347Z,3.83
2018-06-23T05:51:26.982Z,2.80
2018-06-23T05:53:54.596Z,2.93
2018-06-23T05:56:22.223Z,2.50
2018-06-23T05:58:49.822Z,2.67
2018-06-23T06:01:17.478Z,2.70
2018-06-23T06:03:45.174Z,2.80
2018-06-23T06:06:12.918Z,2.90
2018-06-23T06:08:41.486Z,2.77
2018-06-23T06:11:09.170Z,3.50
2018-06-23T06:13:37.129Z,3.37
2018-06-23T06:16:06.520Z,3.33
2018-06-23T06:18:34.150Z,3.23
2018-06-23T06:21:02.127Z,2.50
2018-06-23T06:23:29.797Z,3.00
2018-06-23T06:25:57.741Z,3.47
2018-06-23T06:28:25.424Z,2.50
2018-06-23T06:30:53.074Z,2.70
2018-06-23T06:33:21.006Z,2.93
2018-06-23T06:35:49.642Z,2.70
2018-06-23T06:38:17.373Z,2.23
2018-06-23T06:40:45.044Z,3.60
2018-06-23T06:43:12.721Z,3.07
2018-06-23T06:45:40.381Z,2.30
2018-06-23T06:48:08.144Z,2.60
2018-06-23T06:50:35.790Z,3.30
2018-06-23T06:53:03.627Z,3.40
2018-06-23T06:55:31.393Z,3.00
2018-06-23T06:57:59.081Z,3.67
2018-06-23T07:00:26.867Z,3.30
2018-06-23T07:02:54.519Z,3.10
2018-06-23T07:05:22.200Z,3.07
2018-06-23T07:07:49.803Z,3.00
2018-06-23T07:10:17.519Z,3.07
2018-06-23T07:12:45.227Z,2.30
2018-06-23T07:15:15.127Z,2.50
2018-06-23T07:17:43.131Z,3.00
2018-06-23T07:20:11.281Z,2.57
2018-06-23T07:22:39.695Z,2.47
2018-06-23T07:25:07.463Z,3.33
2018-06-23T07:27:35.339Z,2.70
2018-06-23T07:30:03.747Z,2.50
2018-06-23T07:32:32.733Z,3.17
2018-06-23T07:35:00.407Z,2.63
2018-06-23T07:37:28.207Z,2.60
2018-06-23T07:39:55.957Z,2.70
2018-06-23T07:42:23.692Z,2.70
2018-06-23T07:44:51.468Z,2.90
2018-06-23T07:47:19.254Z,3.00
2018-06-23T07:49:47.158Z,3.40
2018-06-23T07:52:14.842Z,2.73
2018-06-23T07:54:42.514Z,3.80
2018-06-23T07:57:10.222Z,2.43
2018-06-23T07:59:37.936Z,2.30
2018-06-23T08:02:05.649Z,3.33
2018-06-23T08:04:33.480Z,2.97
2018-06-23T08:07:01.099Z,2.73
2018-06-23T08:09:28.807Z,3.00
2018-06-23T08:11:56.526Z,4.80
2018-06-23T08:14:24.222Z,3.43
2018-06-23T08:16:52.278Z,2.97
2018-06-23T08:19:20.014Z,3.77
2018-06-23T08:21:47.659Z,3.20
2018-06-23T08:24:15.329Z,3.00
2018-06-23T08:26:43.247Z,3.53
2018-06-23T08:29:11.023Z,3.17
2018-06-23T08:31:38.648Z,3.97
2018-06-23T08:34:06.293Z,3.63
2018-06-23T08:36:34.043Z,4.57
2018-06-23T08:39:01.737Z,3.60
2018-06-23T08:41:29.403Z,3.50
2018-06-23T08:43:57.953Z,4.77
2018-06-23T08:46:25.615Z,3.80
2018-06-23T08:48:53.263Z,3.70
2018-06-23T08:51:20.978Z,3.97
2018-06-23T08:53:48.665Z,2.83
2018-06-23T08:56:16.402Z,2.53
2018-06-23T08:58:44.074Z,3.30
2018-06-23T09:01:11.816Z,3.70
2018-06-23T09:03:39.478Z,3.07
2018-06-23T09:06:07.163Z,3.80
2018-06-23T09:08:34.845Z,3.53
2018-06-23T09:11:02.512Z,3.30
2018-06-23T09:13:30.154Z,2.60
2018-06-23T09:15:58.944Z,2.27
2018-06-23T09:18:26.608Z,3.57
2018-06-23T09:20:54.230Z,3.50
2018-06-23T09:23:21.920Z,3.23
2018-06-23T09:25:49.653Z,4.60
2018-06-23T09:28:17.234Z,3.10
2018-06-23T09:30:44.949Z,3.63
2018-06-23T09:33:12.606Z,3.10
2018-06-23T09:35:40.262Z,2.50
2018-06-23T09:38:07.910Z,3.20
2018-06-23T09:40:35.567Z,4.87
2018-06-23T09:43:03.235Z,3.40
2018-06-23T09:45:30.893Z,3.77
2018-06-23T09:47:58.545Z,3.90
2018-06-23T09:50:26.247Z,2.63
2018-06-23T09:52:53.855Z,3.10
2018-06-23T09:55:21.536Z,3.03
2018-06-23T09:57:49.233Z,3.07
2018-06-23T10:00:21.569Z,2.90
2018-06-23T10:02:49.262Z,2.57
2018-06-23T10:05:16.964Z,3.10
2018-06-23T10:07:44.630Z,2.70
2018-06-23T10:10:12.336Z,2.70
2018-06-23T10:12:40.055Z,2.57
2018-06-23T10:15:07.747Z,2.53
2018-06-23T10:17:35.484Z,2.70
2018-06-23T10:20:03.384Z,2.40
2018-06-23T10:22:31.038Z,2.80
2018-06-23T10:24:58.680Z,3.50
2018-06-23T10:27:26.327Z,2.20
2018-06-23T10:29:53.973Z,3.10
2018-06-23T10:32:21.622Z,2.33
2018-06-23T10:34:49.271Z,2.43
2018-06-23T10:37:16.918Z,2.43
2018-06-23T10:39:44.617Z,1.87
2018-06-23T10:42:12.341Z,2.70
2018-06-23T10:44:40.034Z,2.07
2018-06-23T10:47:07.785Z,2.23
2018-06-23T10:49:35.429Z,1.87
2018-06-23T10:52:03.345Z,2.60
2018-06-23T10:54:30.975Z,1.87
2018-06-23T10:56:58.618Z,2.50
2018-06-23T10:59:26.290Z,1.97
2018-06-23T11:01:54.003Z,1.70
2018-06-23T11:04:21.690Z,2.23
2018-06-23T11:06:49.345Z,2.10
2018-06-23T11:09:16.987Z,1.73
2018-06-23T11:11:44.737Z,2.70
2018-06-23T11:14:12.375Z,2.70
2018-06-23T11:16:40.116Z,2.30
2018-06-23T11:19:07.930Z,2.60
2018-06-23T11:21:35.570Z,2.50
2018-06-23T11:24:03.364Z,3.30
2018-06-23T11:26:31.110Z,3.30
2018-06-23T11:28:58.830Z,3.00
2018-06-23T11:31:26.452Z,3.83
2018-06-23T11:33:54.190Z,3.70
2018-06-23T11:36:21.894Z,3.23
2018-06-23T11:38:49.743Z,3.43
2018-06-23T11:41:17.575Z,4.27
2018-06-23T11:43:45.305Z,4.43
2018-06-23T11:46:12.973Z,3.67
2018-06-23T11:48:40.712Z,4.30
2018-06-23T11:51:08.427Z,4.57
2018-06-23T11:53:36.223Z,4.60
2018-06-23T11:56:04.813Z,5.13
2018-06-23T11:58:33.179Z,4.80
2018-06-23T12:01:01.075Z,4.80
2018-06-23T12:03:28.834Z,5.20
2018-06-23T12:05:56.637Z,4.63
2018-06-23T12:08:24.470Z,5.53
2018-06-23T12:10:52.072Z,5.47
2018-06-23T12:13:19.756Z,5.23
2018-06-23T12:15:47.484Z,5.60
2018-06-23T12:18:15.252Z,5.10
2018-06-23T12:20:42.989Z,6.67
2018-06-23T12:23:10.647Z,6.23
2018-06-23T12:25:38.456Z,6.43
2018-06-23T12:28:06.617Z,6.13
2018-06-23T12:30:35.480Z,5.70
2018-06-23T12:33:03.204Z,5.43
2018-06-23T12:35:30.944Z,5.07
2018-06-23T12:37:58.784Z,5.43
2018-06-23T12:40:26.630Z,5.83
2018-06-23T12:42:54.299Z,5.30
2018-06-23T12:45:22.085Z,4.60
2018-06-23T12:47:49.774Z,5.50
2018-06-23T12:50:17.445Z,4.77
2018-06-23T12:52:45.143Z,4.43
2018-06-23T12:55:12.777Z,4.53
2018-06-23T12:57:40.521Z,4.57
2018-06-23T13:00:08.245Z,4.40
2018-06-23T13:02:36.116Z,4.33
2018-06-23T13:05:04.537Z,4.33
2018-06-23T13:07:32.343Z,4.40
2018-06-23T13:10:00.165Z,3.50
2018-06-23T13:12:27.831Z,4.50
2018-06-23T13:14:55.643Z,4.67
2018-06-23T13:17:23.373Z,3.73
2018-06-23T13:19:51.004Z,4.07
2018-06-23T13:22:18.749Z,4.77
2018-06-23T13:24:46.487Z,4.40
2018-06-23T13:27:14.262Z,4.67
2018-06-23T13:29:42.068Z,4.80
2018-06-23T13:32:09.724Z,4.30
2018-06-23T13:34:37.499Z,3.90
2018-06-23T13:37:05.192Z,4.63
2018-06-23T13:39:32.974Z,4.23
2018-06-23T13:42:00.638Z,3.17
2018-06-23T13:44:28.626Z,2.87
2018-06-23T13:46:56.346Z,2.87
2018-06-23T13:49:24.102Z,2.60
2018-06-23T13:51:51.733Z,2.33
2018-06-23T13:54:19.468Z,1.60
2018-06-23T13:56:47.183Z,2.90
2018-06-23T13:59:14.919Z,2.40
2018-06-23T14:01:42.688Z,1.70
2018-06-23T14:04:10.431Z,2.10
2018-06-23T14:06:38.292Z,2.40
2018-06-23T14:09:09.153Z,2.50
2018-06-23T14:11:36.788Z,2.50
2018-06-23T14:14:04.536Z,3.30
2018-06-23T14:16:32.221Z,3.00
2018-06-23T14:18:59.872Z,3.80
2018-06-23T14:21:27.533Z,3.47
2018-06-23T14:23:55.171Z,2.77
2018-06-23T14:26:22.996Z,3.03
2018-06-23T14:28:50.623Z,3.20
2018-06-23T14:31:18.843Z,3.23
2018-06-23T14:33:46.522Z,3.53
2018-06-23T14:36:14.295Z,3.10
2018-06-23T14:38:42.307Z,4.03
2018-06-23T14:41:10.068Z,4.00
2018-06-23T14:43:37.730Z,3.60
2018-06-23T14:46:05.533Z,5.47
2018-06-23T14:48:33.381Z,4.73
2018-06-23T14:51:01.118Z,4.57
2018-06-23T14:53:28.817Z,5.07
2018-06-23T14:55:56.534Z,5.83
2018-06-23T14:58:24.211Z,4.33
2018-06-23T15:00:51.967Z,4.70
2018-06-23T15:03:19.602Z,4.93
2018-06-23T15:05:47.342Z,4.40
2018-06-23T15:09:32.492Z,5.00
2018-06-23T15:12:17.756Z,6.80
2018-06-23T15:14:46.060Z,5.63
2018-06-23T15:17:13.815Z,6.60
2018-06-23T15:19:41.459Z,5.60
2018-06-23T15:22:09.195Z,6.83
2018-06-23T15:24:36.843Z,6.60
2018-06-23T15:27:05.278Z,5.87
2018-06-23T15:29:32.954Z,5.60
2018-06-23T15:32:00.602Z,6.60
2018-06-23T15:34:28.294Z,6.43
2018-06-23T15:36:56.034Z,5.20
2018-06-23T15:39:23.710Z,4.17
2018-06-23T15:41:51.506Z,4.77
2018-06-23T15:44:19.213Z,4.33
2018-06-23T15:46:46.906Z,4.70
2018-06-23T15:49:14.652Z,5.17
2018-06-23T15:51:44.726Z,4.10
2018-06-23T15:54:12.892Z,5.07
2018-06-23T15:56:40.558Z,5.07
2018-06-23T15:59:08.289Z,5.97
2018-06-23T16:01:35.887Z,5.33
2018-06-23T16:04:03.614Z,5.50
2018-06-23T16:06:31.337Z,5.67
2018-06-23T16:08:59.093Z,6.00
2018-06-23T16:11:26.791Z,4.60
2018-06-23T16:13:54.623Z,4.70
2018-06-23T16:16:22.329Z,5.50
2018-06-23T16:18:49.939Z,5.40
2018-06-23T16:21:17.773Z,5.53
2018-06-23T16:23:45.418Z,6.40
2018-06-23T16:26:13.061Z,5.33
2018-06-23T16:28:40.809Z,4.70
2018-06-23T16:31:08.674Z,5.47
2018-06-23T16:33:36.379Z,4.80
2018-06-23T16:36:04.031Z,4.83
2018-06-23T16:38:31.678Z,5.60
2018-06-23T16:40:59.306Z,6.03
2018-06-23T16:43:26.996Z,5.10
2018-06-23T16:45:54.891Z,4.40
2018-06-23T16:48:22.662Z,5.20
2018-06-23T16:50:50.371Z,6.93
2018-06-23T16:53:18.137Z,6.83
2018-06-23T16:55:45.812Z,12.67
2018-06-23T16:58:13.476Z,10.23
2018-06-23T17:00:41.432Z,6.20
2018-06-23T17:03:09.154Z,5.30
2018-06-23T17:05:36.893Z,4.87
2018-06-23T17:08:04.621Z,4.70
2018-06-23T17:10:32.262Z,4.80
2018-06-23T17:12:59.872Z,4.87
2018-06-23T17:15:27.527Z,4.63
2018-06-23T17:17:55.182Z,4.67
2018-06-23T17:20:22.841Z,4.53
2018-06-23T17:22:51.185Z,4.70
2018-06-23T17:25:18.887Z,4.53
2018-06-23T17:27:46.536Z,4.60
2018-06-23T17:30:14.174Z,4.97
2018-06-23T17:32:41.882Z,4.83
2018-06-23T17:35:09.546Z,4.80
2018-06-23T17:37:37.266Z,4.23
2018-06-23T17:40:04.912Z,4.50
2018-06-23T17:42:32.797Z,4.87
2018-06-23T17:45:00.686Z,4.90
2018-06-23T17:47:28.446Z,4.77
2018-06-23T17:49:56.198Z,4.20
2018-06-23T17:52:23.838Z,4.63
2018-06-23T17:54:51.508Z,5.47
2018-06-23T17:57:19.306Z,4.60
2018-06-23T17:59:46.967Z,4.53
2018-06-23T18:02:14.856Z,4.60
2018-06-23T18:04:42.630Z,5.30
2018-06-23T18:07:10.294Z,4.40
2018-06-23T18:09:37.992Z,4.30
2018-06-23T18:12:06.008Z,4.30
2018-06-23T18:14:33.819Z,5.03
2018-06-23T18:17:01.558Z,5.10
2018-06-23T18:19:29.201Z,5.10
2018-06-23T18:21:56.837Z,4.20
2018-06-23T18:24:25.272Z,4.70
2018-06-23T18:26:53.091Z,4.37
2018-06-23T18:29:20.728Z,5.47
2018-06-23T18:31:49.099Z,4.33
2018-06-23T18:34:16.730Z,5.50
2018-06-23T18:36:44.560Z,4.80
2018-06-23T18:39:12.270Z,6.03
2018-06-23T18:41:39.980Z,4.70
2018-06-23T18:44:07.737Z,4.83
2018-06-23T18:46:35.847Z,4.47
2018-06-23T18:49:03.556Z,4.40
2018-06-23T18:51:31.412Z,6.50
2018-06-23T18:53:59.698Z,4.67
2018-06-23T18:56:27.342Z,4.10
2018-06-23T18:58:55.072Z,5.17
2018-06-23T19:01:22.658Z,6.00
2018-06-23T19:03:50.273Z,4.83
2018-06-23T19:06:17.892Z,5.00
2018-06-23T19:08:45.590Z,4.93
2018-06-23T19:11:13.192Z,3.70
2018-06-23T19:13:40.854Z,5.07
2018-06-23T19:16:08.548Z,5.17
2018-06-23T19:18:36.341Z,4.47
2018-06-23T19:21:04.129Z,4.20
2018-06-23T19:23:31.822Z,4.57
2018-06-23T19:25:59.604Z,5.03
2018-06-23T19:28:27.346Z,5.90
2018-06-23T19:30:55.037Z,5.63
2018-06-23T19:33:22.677Z,5.13
2018-06-23T19:35:50.287Z,6.13
2018-06-23T19:38:18.027Z,5.80
2018-06-23T19:40:45.711Z,5.23
2018-06-23T19:43:13.414Z,5.57
2018-06-23T19:45:41.165Z,5.60
2018-06-23T19:48:09.707Z,5.70
2018-06-23T19:50:37.358Z,6.50
2018-06-23T19:53:05.147Z,5.67
2018-06-23T19:55:32.806Z,6.20
2018-06-23T19:58:00.414Z,6.90
2018-06-23T20:00:28.506Z,6.43
2018-06-23T20:02:56.118Z,6.63
2018-06-23T20:05:23.804Z,6.67
2018-06-23T20:07:53.034Z,6.87
2018-06-23T20:10:21.346Z,6.80
2018-06-23T20:12:49.504Z,6.33
2018-06-23T20:15:17.735Z,7.30
2018-06-23T20:17:46.019Z,6.80
2018-06-23T20:20:13.700Z,8.00
2018-06-23T20:22:41.737Z,7.10
2018-06-23T20:25:09.447Z,7.03
2018-06-23T20:27:37.068Z,7.40
2018-06-23T20:30:05.330Z,7.37
2018-06-23T20:32:33.124Z,7.90
2018-06-23T20:35:00.740Z,8.13
2018-06-23T20:40:10.254Z,7.60
2018-06-23T20:42:43.683Z,8.30
2018-06-23T20:45:22.321Z,8.93
2018-06-23T20:48:03.060Z,8.43
2018-06-23T20:50:37.543Z,11.27
2018-06-23T20:53:07.060Z,10.90
2018-06-23T20:55:34.635Z,9.10
2018-06-23T20:58:02.309Z,8.30
2018-06-23T21:00:29.909Z,8.10
2018-06-23T21:02:57.571Z,8.73
2018-06-23T21:05:25.165Z,9.20
2018-06-23T21:07:52.758Z,7.80
2018-06-23T21:10:39.355Z,7.77
2018-06-23T21:13:06.985Z,7.10
2018-06-23T21:15:34.901Z,8.60
2018-06-23T21:18:02.593Z,9.13
2018-06-23T21:20:30.955Z,9.63
2018-06-23T21:22:58.880Z,9.27
2018-06-23T21:25:26.530Z,8.47
2018-06-23T21:27:54.201Z,7.90
2018-06-23T21:30:21.843Z,7.77
2018-06-23T21:32:49.570Z,7.13
2018-06-23T21:35:17.216Z,8.87
2018-06-23T21:37:44.924Z,8.50
2018-06-23T21:40:12.684Z,8.40
2018-06-23T21:42:47.011Z,8.40
2018-06-23T21:45:14.719Z,7.93
2018-06-23T21:47:42.337Z,8.37
2018-06-23T21:50:10.059Z,8.93
2018-06-23T21:52:37.755Z,8.10
2018-06-23T21:55:05.519Z,10.10
2018-06-23T21:57:33.396Z,7.40
2018-06-23T22:00:01.553Z,9.47
2018-06-23T22:02:29.213Z,9.57
2018-06-23T22:04:56.774Z,9.70
2018-06-23T22:07:24.334Z,9.87
2018-06-23T22:09:51.885Z,10.37
2018-06-23T22:12:19.554Z,10.77
2018-06-23T22:14:47.145Z,11.40
2018-06-23T22:17:14.798Z,12.37
2018-06-23T22:19:42.415Z,12.37
2018-06-23T22:22:10.070Z,11.57
2018-06-23T22:24:38.040Z,11.80
2018-06-23T22:27:05.646Z,12.73
2018-06-23T22:29:33.300Z,11.50
2018-06-23T22:32:00.910Z,14.53
2018-06-23T22:34:28.479Z,12.20
2018-06-23T22:36:56.073Z,13.40
2018-06-23T22:39:23.692Z,13.93
2018-06-23T22:41:51.258Z,14.60
2018-06-23T22:44:18.869Z,13.67
2018-06-23T22:46:46.530Z,13.47
2018-06-23T22:49:14.219Z,13.80
2018-06-23T22:51:41.815Z,14.37
2018-06-23T22:54:09.429Z,15.40
2018-06-23T22:56:37.050Z,13.90
2018-06-23T22:59:04.836Z,15.07
2018-06-23T23:01:32.536Z,16.17
2018-06-23T23:04:00.250Z,15.30
2018-06-23T23:06:27.958Z,14.63
2018-06-23T23:08:55.498Z,15.30
2018-06-23T23:11:23.107Z,14.60
2018-06-23T23:13:50.704Z,13.70
2018-06-23T23:16:18.489Z,13.67
2018-06-23T23:18:46.137Z,14.57
2018-06-23T23:21:13.877Z,13.97
2018-06-23T23:23:41.509Z,13.70
2018-06-23T23:26:09.151Z,14.10
2018-06-23T23:28:36.787Z,14.20
2018-06-23T23:31:04.443Z,14.30
2018-06-23T23:33:32.051Z,13.47
2018-06-23T23:35:59.713Z,13.10
2018-06-23T23:38:27.389Z,13.10
2018-06-23T23:40:55.033Z,13.13
2018-06-23T23:43:22.630Z,13.53
2018-06-23T23:45:50.241Z,14.30
2018-06-23T23:48:17.861Z,15.03
2018-06-23T23:50:45.524Z,13.43
2018-06-23T23:53:13.155Z,14.40
2018-06-23T23:55:40.819Z,14.43
2018-06-23T23:58:08.493Z,13.77
